sensor_id;sensor_type;location;lat;lon;timestamp;P1;durP1;ratioP1;P2;durP2;ratioP2
32786;SDS011;19139;49.372;8.580;2022-09-03T00:00:50;1.27;;;0.80;;
32786;SDS011;19139;49.372;8.580;2022-09-03T00:03:30;0.53;;;0.53;;
32786;SDS011;19139;49.372;8.580;2022-09-03T00:06:12;1.10;;;0.50;;
32786;SDS011;19139;49.372;8.580;2022-09-03T00:08:51;0.60;;;0.60;;
32786;SDS011;19139;49.372;8.580;2022-09-03T00:11:32;0.80;;;0.80;;
32786;SDS011;19139;49.372;8.580;2022-09-03T00:14:33;1.00;;;0.60;;
32786;SDS011;19139;49.372;8.580;2022-09-03T00:17:10;1.30;;;0.60;;
32786;SDS011;19139;49.372;8.580;2022-09-03T00:19:58;0.60;;;0.57;;
32786;SDS011;19139;49.372;8.580;2022-09-03T00:22:39;0.77;;;0.50;;
32786;SDS011;19139;49.372;8.580;2022-09-03T00:25:19;1.73;;;0.73;;
32786;SDS011;19139;49.372;8.580;2022-09-03T00:27:55;0.87;;;0.63;;
32786;SDS011;19139;49.372;8.580;2022-09-03T00:30:28;0.60;;;0.60;;
32786;SDS011;19139;49.372;8.580;2022-09-03T00:33:06;1.10;;;0.73;;
32786;SDS011;19139;49.372;8.580;2022-09-03T00:35:42;0.90;;;0.73;;
32786;SDS011;19139;49.372;8.580;2022-09-03T00:38:14;1.27;;;0.97;;
32786;SDS011;19139;49.372;8.580;2022-09-03T00:43:41;0.80;;;0.70;;
32786;SDS011;19139;49.372;8.580;2022-09-03T00:49:31;0.63;;;0.60;;
32786;SDS011;19139;49.372;8.580;2022-09-03T01:00:15;0.70;;;0.70;;
32786;SDS011;19139;49.372;8.580;2022-09-03T01:03:06;0.80;;;0.50;;
32786;SDS011;19139;49.372;8.580;2022-09-03T01:08:46;1.50;;;0.97;;
32786;SDS011;19139;49.372;8.580;2022-09-03T01:22:50;0.93;;;0.80;;
32786;SDS011;19139;49.372;8.580;2022-09-03T01:28:01;0.93;;;0.50;;
32786;SDS011;19139;49.372;8.580;2022-09-03T01:34:03;5.50;;;1.57;;
32786;SDS011;19139;49.372;8.580;2022-09-03T01:51:15;0.93;;;0.73;;
32786;SDS011;19139;49.372;8.580;2022-09-03T01:54:08;0.50;;;0.50;;
32786;SDS011;19139;49.372;8.580;2022-09-03T01:59:42;1.03;;;0.70;;
32786;SDS011;19139;49.372;8.580;2022-09-03T02:02:23;0.80;;;0.60;;
32786;SDS011;19139;49.372;8.580;2022-09-03T02:07:31;0.60;;;0.57;;
32786;SDS011;19139;49.372;8.580;2022-09-03T02:10:03;0.70;;;0.60;;
32786;SDS011;19139;49.372;8.580;2022-09-03T02:12:39;0.73;;;0.73;;
32786;SDS011;19139;49.372;8.580;2022-09-03T02:15:12;0.73;;;0.63;;
32786;SDS011;19139;49.372;8.580;2022-09-03T02:17:41;1.73;;;0.50;;
32786;SDS011;19139;49.372;8.580;2022-09-03T02:20:11;0.60;;;0.60;;
32786;SDS011;19139;49.372;8.580;2022-09-03T02:22:49;1.93;;;1.23;;
32786;SDS011;19139;49.372;8.580;2022-09-03T02:25:19;0.80;;;0.70;;
32786;SDS011;19139;49.372;8.580;2022-09-03T02:27:49;1.07;;;0.83;;
32786;SDS011;19139;49.372;8.580;2022-09-03T02:30:16;1.33;;;1.03;;
32786;SDS011;19139;49.372;8.580;2022-09-03T02:32:48;0.77;;;0.73;;
32786;SDS011;19139;49.372;8.580;2022-09-03T02:35:20;1.10;;;0.80;;
32786;SDS011;19139;49.372;8.580;2022-09-03T02:37:46;0.70;;;0.67;;
32786;SDS011;19139;49.372;8.580;2022-09-03T02:40:18;0.90;;;0.80;;
32786;SDS011;19139;49.372;8.580;2022-09-03T02:42:49;0.70;;;0.67;;
32786;SDS011;19139;49.372;8.580;2022-09-03T02:47:48;0.97;;;0.70;;
32786;SDS011;19139;49.372;8.580;2022-09-03T02:50:17;0.63;;;0.40;;
32786;SDS011;19139;49.372;8.580;2022-09-03T02:52:49;1.03;;;0.70;;
32786;SDS011;19139;49.372;8.580;2022-09-03T02:55:16;1.30;;;0.60;;
32786;SDS011;19139;49.372;8.580;2022-09-03T02:57:49;0.80;;;0.80;;
32786;SDS011;19139;49.372;8.580;2022-09-03T03:00:16;0.77;;;0.70;;
32786;SDS011;19139;49.372;8.580;2022-09-03T03:02:48;1.40;;;0.80;;
32786;SDS011;19139;49.372;8.580;2022-09-03T03:05:24;0.60;;;0.60;;
32786;SDS011;19139;49.372;8.580;2022-09-03T03:08:00;0.47;;;0.40;;
32786;SDS011;19139;49.372;8.580;2022-09-03T03:10:27;1.23;;;0.60;;
32786;SDS011;19139;49.372;8.580;2022-09-03T03:12:58;0.93;;;0.53;;
32786;SDS011;19139;49.372;8.580;2022-09-03T03:15:30;1.70;;;0.77;;
32786;SDS011;19139;49.372;8.580;2022-09-03T03:17:57;0.63;;;0.63;;
32786;SDS011;19139;49.372;8.580;2022-09-03T03:20:28;0.70;;;0.70;;
32786;SDS011;19139;49.372;8.580;2022-09-03T03:22:56;0.77;;;0.77;;
32786;SDS011;19139;49.372;8.580;2022-09-03T03:25:27;0.90;;;0.70;;
32786;SDS011;19139;49.372;8.580;2022-09-03T03:27:59;1.30;;;0.80;;
32786;SDS011;19139;49.372;8.580;2022-09-03T03:30:26;1.07;;;0.60;;
32786;SDS011;19139;49.372;8.580;2022-09-03T03:32:57;0.80;;;0.70;;
32786;SDS011;19139;49.372;8.580;2022-09-03T03:35:29;0.80;;;0.80;;
32786;SDS011;19139;49.372;8.580;2022-09-03T03:37:56;0.97;;;0.77;;
32786;SDS011;19139;49.372;8.580;2022-09-03T03:40:28;0.73;;;0.60;;
32786;SDS011;19139;49.372;8.580;2022-09-03T03:42:56;0.73;;;0.63;;
32786;SDS011;19139;49.372;8.580;2022-09-03T03:45:28;0.63;;;0.63;;
32786;SDS011;19139;49.372;8.580;2022-09-03T03:48:00;1.50;;;0.90;;
32786;SDS011;19139;49.372;8.580;2022-09-03T03:50:26;1.77;;;0.57;;
32786;SDS011;19139;49.372;8.580;2022-09-03T03:52:58;1.03;;;0.50;;
32786;SDS011;19139;49.372;8.580;2022-09-03T03:55:26;0.60;;;0.60;;
32786;SDS011;19139;49.372;8.580;2022-09-03T03:57:58;0.70;;;0.60;;
32786;SDS011;19139;49.372;8.580;2022-09-03T04:00:29;0.50;;;0.40;;
32786;SDS011;19139;49.372;8.580;2022-09-03T04:02:57;0.73;;;0.50;;
32786;SDS011;19139;49.372;8.580;2022-09-03T04:05:29;0.70;;;0.60;;
32786;SDS011;19139;49.372;8.580;2022-09-03T04:08:01;1.70;;;0.50;;
32786;SDS011;19139;49.372;8.580;2022-09-03T04:10:27;0.60;;;0.60;;
32786;SDS011;19139;49.372;8.580;2022-09-03T04:12:59;0.80;;;0.60;;
32786;SDS011;19139;49.372;8.580;2022-09-03T04:15:26;0.67;;;0.60;;
32786;SDS011;19139;49.372;8.580;2022-09-03T04:17:55;0.50;;;0.40;;
32786;SDS011;19139;49.372;8.580;2022-09-03T04:20:22;0.50;;;0.50;;
32786;SDS011;19139;49.372;8.580;2022-09-03T04:22:48;0.70;;;0.60;;
32786;SDS011;19139;49.372;8.580;2022-09-03T04:25:20;0.77;;;0.40;;
32786;SDS011;19139;49.372;8.580;2022-09-03T04:27:46;0.50;;;0.50;;
32786;SDS011;19139;49.372;8.580;2022-09-03T04:30:18;0.60;;;0.57;;
32786;SDS011;19139;49.372;8.580;2022-09-03T04:32:50;0.60;;;0.50;;
32786;SDS011;19139;49.372;8.580;2022-09-03T04:35:22;0.50;;;0.50;;
32786;SDS011;19139;49.372;8.580;2022-09-03T04:37:59;0.60;;;0.60;;
32786;SDS011;19139;49.372;8.580;2022-09-03T04:40:28;0.67;;;0.50;;
32786;SDS011;19139;49.372;8.580;2022-09-03T04:43:00;0.70;;;0.60;;
32786;SDS011;19139;49.372;8.580;2022-09-03T04:45:26;0.60;;;0.60;;
32786;SDS011;19139;49.372;8.580;2022-09-03T04:48:01;1.00;;;0.90;;
32786;SDS011;19139;49.372;8.580;2022-09-03T04:50:30;0.80;;;0.70;;
32786;SDS011;19139;49.372;8.580;2022-09-03T04:53:01;0.60;;;0.60;;
32786;SDS011;19139;49.372;8.580;2022-09-03T04:55:34;0.87;;;0.63;;
32786;SDS011;19139;49.372;8.580;2022-09-03T04:58:03;0.70;;;0.70;;
32786;SDS011;19139;49.372;8.580;2022-09-03T05:00:37;0.90;;;0.50;;
32786;SDS011;19139;49.372;8.580;2022-09-03T05:03:09;1.07;;;0.70;;
32786;SDS011;19139;49.372;8.580;2022-09-03T05:05:40;0.50;;;0.50;;
32786;SDS011;19139;49.372;8.580;2022-09-03T05:08:07;0.70;;;0.70;;
32786;SDS011;19139;49.372;8.580;2022-09-03T05:10:38;0.60;;;0.50;;
32786;SDS011;19139;49.372;8.580;2022-09-03T05:13:10;0.53;;;0.53;;
32786;SDS011;19139;49.372;8.580;2022-09-03T05:15:37;1.03;;;0.60;;
32786;SDS011;19139;49.372;8.580;2022-09-03T05:18:08;0.67;;;0.67;;
32786;SDS011;19139;49.372;8.580;2022-09-03T05:20:40;0.80;;;0.70;;
32786;SDS011;19139;49.372;8.580;2022-09-03T05:23:06;1.33;;;0.70;;
32786;SDS011;19139;49.372;8.580;2022-09-03T05:25:38;0.70;;;0.70;;
32786;SDS011;19139;49.372;8.580;2022-09-03T05:28:10;0.60;;;0.60;;
32786;SDS011;19139;49.372;8.580;2022-09-03T05:30:38;0.60;;;0.60;;
32786;SDS011;19139;49.372;8.580;2022-09-03T05:33:10;1.00;;;0.73;;
32786;SDS011;19139;49.372;8.580;2022-09-03T05:35:36;0.70;;;0.70;;
32786;SDS011;19139;49.372;8.580;2022-09-03T05:38:10;1.47;;;0.97;;
32786;SDS011;19139;49.372;8.580;2022-09-03T05:40:36;0.60;;;0.60;;
32786;SDS011;19139;49.372;8.580;2022-09-03T05:43:08;0.70;;;0.57;;
32786;SDS011;19139;49.372;8.580;2022-09-03T05:45:39;0.50;;;0.50;;
32786;SDS011;19139;49.372;8.580;2022-09-03T05:48:06;0.80;;;0.80;;
32786;SDS011;19139;49.372;8.580;2022-09-03T05:50:38;0.40;;;0.40;;
32786;SDS011;19139;49.372;8.580;2022-09-03T05:53:10;0.90;;;0.60;;
32786;SDS011;19139;49.372;8.580;2022-09-03T05:55:36;0.60;;;0.57;;
32786;SDS011;19139;49.372;8.580;2022-09-03T05:58:08;0.70;;;0.50;;
32786;SDS011;19139;49.372;8.580;2022-09-03T06:00:39;0.60;;;0.60;;
32786;SDS011;19139;49.372;8.580;2022-09-03T06:03:06;0.80;;;0.80;;
32786;SDS011;19139;49.372;8.580;2022-09-03T06:05:37;0.80;;;0.70;;
32786;SDS011;19139;49.372;8.580;2022-09-03T06:08:09;0.67;;;0.67;;
32786;SDS011;19139;49.372;8.580;2022-09-03T06:10:40;0.97;;;0.70;;
32786;SDS011;19139;49.372;8.580;2022-09-03T06:13:07;0.90;;;0.80;;
32786;SDS011;19139;49.372;8.580;2022-09-03T06:15:38;1.17;;;0.90;;
32786;SDS011;19139;49.372;8.580;2022-09-03T06:18:10;0.90;;;0.77;;
32786;SDS011;19139;49.372;8.580;2022-09-03T06:20:36;0.90;;;0.77;;
32786;SDS011;19139;49.372;8.580;2022-09-03T06:23:08;1.80;;;0.50;;
32786;SDS011;19139;49.372;8.580;2022-09-03T06:25:40;0.70;;;0.60;;
32786;SDS011;19139;49.372;8.580;2022-09-03T06:28:07;0.93;;;0.60;;
32786;SDS011;19139;49.372;8.580;2022-09-03T06:30:38;0.50;;;0.50;;
32786;SDS011;19139;49.372;8.580;2022-09-03T06:33:06;0.83;;;0.70;;
32786;SDS011;19139;49.372;8.580;2022-09-03T06:35:38;0.53;;;0.53;;
32786;SDS011;19139;49.372;8.580;2022-09-03T06:38:08;0.60;;;0.60;;
32786;SDS011;19139;49.372;8.580;2022-09-03T06:40:37;0.60;;;0.60;;
32786;SDS011;19139;49.372;8.580;2022-09-03T06:43:09;0.77;;;0.63;;
32786;SDS011;19139;49.372;8.580;2022-09-03T06:45:36;1.27;;;0.77;;
32786;SDS011;19139;49.372;8.580;2022-09-03T06:48:08;1.43;;;0.60;;
32786;SDS011;19139;49.372;8.580;2022-09-03T06:50:39;1.73;;;0.70;;
32786;SDS011;19139;49.372;8.580;2022-09-03T06:53:06;0.90;;;0.70;;
32786;SDS011;19139;49.372;8.580;2022-09-03T06:55:37;0.70;;;0.60;;
32786;SDS011;19139;49.372;8.580;2022-09-03T06:58:10;0.73;;;0.53;;
32786;SDS011;19139;49.372;8.580;2022-09-03T07:00:36;0.53;;;0.53;;
32786;SDS011;19139;49.372;8.580;2022-09-03T07:03:08;0.43;;;0.33;;
32786;SDS011;19139;49.372;8.580;2022-09-03T07:05:40;0.50;;;0.43;;
32786;SDS011;19139;49.372;8.580;2022-09-03T07:08:09;0.53;;;0.50;;
32786;SDS011;19139;49.372;8.580;2022-09-03T07:10:36;0.53;;;0.50;;
32786;SDS011;19139;49.372;8.580;2022-09-03T07:13:08;0.60;;;0.60;;
32786;SDS011;19139;49.372;8.580;2022-09-03T07:15:39;0.70;;;0.70;;
32786;SDS011;19139;49.372;8.580;2022-09-03T07:18:06;0.90;;;0.70;;
32786;SDS011;19139;49.372;8.580;2022-09-03T07:20:37;1.37;;;0.90;;
32786;SDS011;19139;49.372;8.580;2022-09-03T07:23:09;1.47;;;1.13;;
32786;SDS011;19139;49.372;8.580;2022-09-03T07:25:36;0.77;;;0.70;;
32786;SDS011;19139;49.372;8.580;2022-09-03T07:28:07;0.80;;;0.57;;
32786;SDS011;19139;49.372;8.580;2022-09-03T07:30:38;0.57;;;0.47;;
32786;SDS011;19139;49.372;8.580;2022-09-03T07:33:10;0.80;;;0.77;;
32786;SDS011;19139;49.372;8.580;2022-09-03T07:35:37;0.70;;;0.70;;
32786;SDS011;19139;49.372;8.580;2022-09-03T07:38:08;0.70;;;0.60;;
32786;SDS011;19139;49.372;8.580;2022-09-03T07:40:40;0.80;;;0.63;;
32786;SDS011;19139;49.372;8.580;2022-09-03T07:43:07;0.70;;;0.70;;
32786;SDS011;19139;49.372;8.580;2022-09-03T07:45:38;0.80;;;0.60;;
32786;SDS011;19139;49.372;8.580;2022-09-03T07:48:10;0.60;;;0.60;;
32786;SDS011;19139;49.372;8.580;2022-09-03T07:50:37;0.60;;;0.60;;
32786;SDS011;19139;49.372;8.580;2022-09-03T07:53:10;0.90;;;0.73;;
32786;SDS011;19139;49.372;8.580;2022-09-03T07:55:36;1.00;;;0.90;;
32786;SDS011;19139;49.372;8.580;2022-09-03T07:58:08;0.90;;;0.80;;
32786;SDS011;19139;49.372;8.580;2022-09-03T08:00:37;0.70;;;0.70;;
32786;SDS011;19139;49.372;8.580;2022-09-03T08:03:09;0.67;;;0.50;;
32786;SDS011;19139;49.372;8.580;2022-09-03T08:05:36;1.23;;;0.77;;
32786;SDS011;19139;49.372;8.580;2022-09-03T08:08:07;0.77;;;0.67;;
32786;SDS011;19139;49.372;8.580;2022-09-03T08:10:40;1.37;;;0.73;;
32786;SDS011;19139;49.372;8.580;2022-09-03T08:13:07;1.20;;;0.63;;
32786;SDS011;19139;49.372;8.580;2022-09-03T08:15:39;3.13;;;1.23;;
32786;SDS011;19139;49.372;8.580;2022-09-03T08:18:07;0.87;;;0.70;;
32786;SDS011;19139;49.372;8.580;2022-09-03T08:20:36;1.43;;;0.97;;
32786;SDS011;19139;49.372;8.580;2022-09-03T08:23:08;2.47;;;0.73;;
32786;SDS011;19139;49.372;8.580;2022-09-03T08:25:40;0.67;;;0.60;;
32786;SDS011;19139;49.372;8.580;2022-09-03T08:28:06;1.00;;;0.80;;
32786;SDS011;19139;49.372;8.580;2022-09-03T08:30:38;0.70;;;0.70;;
32786;SDS011;19139;49.372;8.580;2022-09-03T08:33:10;1.13;;;0.80;;
32786;SDS011;19139;49.372;8.580;2022-09-03T08:35:36;0.60;;;0.53;;
32786;SDS011;19139;49.372;8.580;2022-09-03T08:38:09;1.30;;;0.83;;
32786;SDS011;19139;49.372;8.580;2022-09-03T08:40:40;1.00;;;0.80;;
32786;SDS011;19139;49.372;8.580;2022-09-03T08:43:11;0.70;;;0.70;;
32786;SDS011;19139;49.372;8.580;2022-09-03T08:45:48;0.80;;;0.63;;
32786;SDS011;19139;49.372;8.580;2022-09-03T08:48:20;0.70;;;0.70;;
32786;SDS011;19139;49.372;8.580;2022-09-03T08:50:51;1.17;;;1.07;;
32786;SDS011;19139;49.372;8.580;2022-09-03T08:53:44;0.80;;;0.73;;
32786;SDS011;19139;49.372;8.580;2022-09-03T08:56:20;1.30;;;1.20;;
32786;SDS011;19139;49.372;8.580;2022-09-03T08:58:51;0.80;;;0.70;;
32786;SDS011;19139;49.372;8.580;2022-09-03T09:06:51;1.53;;;0.80;;
32786;SDS011;19139;49.372;8.580;2022-09-03T09:12:28;1.30;;;0.80;;
32786;SDS011;19139;49.372;8.580;2022-09-03T09:15:27;1.17;;;0.90;;
32786;SDS011;19139;49.372;8.580;2022-09-03T09:18:16;0.83;;;0.80;;
32786;SDS011;19139;49.372;8.580;2022-09-03T09:21:21;1.03;;;0.67;;
32786;SDS011;19139;49.372;8.580;2022-09-03T09:23:53;1.60;;;0.87;;
32786;SDS011;19139;49.372;8.580;2022-09-03T09:26:26;1.03;;;0.73;;
32786;SDS011;19139;49.372;8.580;2022-09-03T09:29:04;0.70;;;0.70;;
32786;SDS011;19139;49.372;8.580;2022-09-03T09:31:39;1.07;;;0.97;;
32786;SDS011;19139;49.372;8.580;2022-09-03T09:34:10;0.93;;;0.70;;
32786;SDS011;19139;49.372;8.580;2022-09-03T09:36:41;0.80;;;0.80;;
32786;SDS011;19139;49.372;8.580;2022-09-03T09:39:17;1.60;;;0.70;;
32786;SDS011;19139;49.372;8.580;2022-09-03T09:41:56;0.70;;;0.67;;
32786;SDS011;19139;49.372;8.580;2022-09-03T09:44:39;0.80;;;0.73;;
32786;SDS011;19139;49.372;8.580;2022-09-03T09:47:09;1.43;;;0.80;;
32786;SDS011;19139;49.372;8.580;2022-09-03T09:52:28;1.73;;;0.80;;
32786;SDS011;19139;49.372;8.580;2022-09-03T09:55:10;1.10;;;0.83;;
32786;SDS011;19139;49.372;8.580;2022-09-03T09:57:47;2.00;;;0.97;;
32786;SDS011;19139;49.372;8.580;2022-09-03T10:00:18;0.80;;;0.70;;
32786;SDS011;19139;49.372;8.580;2022-09-03T10:02:52;1.10;;;1.00;;
32786;SDS011;19139;49.372;8.580;2022-09-03T10:07:57;1.13;;;1.03;;
32786;SDS011;19139;49.372;8.580;2022-09-03T10:10:35;1.40;;;0.80;;
32786;SDS011;19139;49.372;8.580;2022-09-03T10:13:16;0.90;;;0.80;;
32786;SDS011;19139;49.372;8.580;2022-09-03T10:16:00;1.57;;;0.90;;
32786;SDS011;19139;49.372;8.580;2022-09-03T10:18:47;1.67;;;0.73;;
32786;SDS011;19139;49.372;8.580;2022-09-03T10:26:57;1.37;;;1.00;;
32786;SDS011;19139;49.372;8.580;2022-09-03T10:29:28;1.10;;;0.70;;
32786;SDS011;19139;49.372;8.580;2022-09-03T10:34:40;1.27;;;0.90;;
32786;SDS011;19139;49.372;8.580;2022-09-03T10:40:00;0.93;;;0.77;;
32786;SDS011;19139;49.372;8.580;2022-09-03T10:51:42;0.80;;;0.80;;
32786;SDS011;19139;49.372;8.580;2022-09-03T10:54:24;1.30;;;1.10;;
32786;SDS011;19139;49.372;8.580;2022-09-03T11:05:38;0.80;;;0.80;;
32786;SDS011;19139;49.372;8.580;2022-09-03T11:11:11;0.93;;;0.90;;
32786;SDS011;19139;49.372;8.580;2022-09-03T11:13:51;1.10;;;0.63;;
32786;SDS011;19139;49.372;8.580;2022-09-03T11:16:51;1.53;;;0.70;;
32786;SDS011;19139;49.372;8.580;2022-09-03T11:19:32;1.57;;;0.90;;
32786;SDS011;19139;49.372;8.580;2022-09-03T11:22:06;1.10;;;0.80;;
32786;SDS011;19139;49.372;8.580;2022-09-03T11:24:40;1.13;;;0.90;;
32786;SDS011;19139;49.372;8.580;2022-09-03T11:27:22;0.77;;;0.77;;
32786;SDS011;19139;49.372;8.580;2022-09-03T11:30:23;1.47;;;1.10;;
32786;SDS011;19139;49.372;8.580;2022-09-03T11:33:11;0.90;;;0.90;;
32786;SDS011;19139;49.372;8.580;2022-09-03T11:35:40;0.97;;;0.83;;
32786;SDS011;19139;49.372;8.580;2022-09-03T11:40:56;0.90;;;0.70;;
32786;SDS011;19139;49.372;8.580;2022-09-03T11:43:29;0.80;;;0.77;;
32786;SDS011;19139;49.372;8.580;2022-09-03T11:48:55;1.20;;;1.10;;
32786;SDS011;19139;49.372;8.580;2022-09-03T11:51:40;1.07;;;0.97;;
32786;SDS011;19139;49.372;8.580;2022-09-03T11:56:48;1.20;;;1.07;;
32786;SDS011;19139;49.372;8.580;2022-09-03T11:59:16;1.10;;;1.00;;
32786;SDS011;19139;49.372;8.580;2022-09-03T12:04:44;1.10;;;1.00;;
32786;SDS011;19139;49.372;8.580;2022-09-03T12:18:28;1.10;;;1.00;;
32786;SDS011;19139;49.372;8.580;2022-09-03T12:21:04;1.30;;;1.00;;
32786;SDS011;19139;49.372;8.580;2022-09-03T12:23:49;0.83;;;0.80;;
32786;SDS011;19139;49.372;8.580;2022-09-03T12:26:23;1.47;;;0.70;;
32786;SDS011;19139;49.372;8.580;2022-09-03T12:28:57;1.03;;;0.80;;
32786;SDS011;19139;49.372;8.580;2022-09-03T12:31:31;1.10;;;0.97;;
32786;SDS011;19139;49.372;8.580;2022-09-03T12:34:14;0.70;;;0.70;;
32786;SDS011;19139;49.372;8.580;2022-09-03T12:36:48;1.23;;;0.80;;
32786;SDS011;19139;49.372;8.580;2022-09-03T12:39:18;0.90;;;0.90;;
32786;SDS011;19139;49.372;8.580;2022-09-03T12:42:10;0.80;;;0.80;;
32786;SDS011;19139;49.372;8.580;2022-09-03T12:44:41;0.67;;;0.63;;
32786;SDS011;19139;49.372;8.580;2022-09-03T12:50:04;0.80;;;0.80;;
32786;SDS011;19139;49.372;8.580;2022-09-03T12:52:40;1.03;;;0.90;;
32786;SDS011;19139;49.372;8.580;2022-09-03T12:55:28;1.20;;;1.10;;
32786;SDS011;19139;49.372;8.580;2022-09-03T12:58:09;1.40;;;0.90;;
32786;SDS011;19139;49.372;8.580;2022-09-03T13:00:53;1.20;;;1.10;;
32786;SDS011;19139;49.372;8.580;2022-09-03T13:03:34;0.97;;;0.80;;
32786;SDS011;19139;49.372;8.580;2022-09-03T13:06:27;1.00;;;0.87;;
32786;SDS011;19139;49.372;8.580;2022-09-03T13:09:04;1.00;;;0.70;;
32786;SDS011;19139;49.372;8.580;2022-09-03T13:11:38;1.00;;;0.90;;
32786;SDS011;19139;49.372;8.580;2022-09-03T13:14:11;0.70;;;0.70;;
32786;SDS011;19139;49.372;8.580;2022-09-03T13:24:53;0.90;;;0.70;;
32786;SDS011;19139;49.372;8.580;2022-09-03T13:33:23;1.20;;;0.80;;
32786;SDS011;19139;49.372;8.580;2022-09-03T13:38:50;1.00;;;0.90;;
32786;SDS011;19139;49.372;8.580;2022-09-03T13:41:28;0.70;;;0.70;;
32786;SDS011;19139;49.372;8.580;2022-09-03T13:44:17;0.80;;;0.67;;
32786;SDS011;19139;49.372;8.580;2022-09-03T13:46:54;1.47;;;0.80;;
32786;SDS011;19139;49.372;8.580;2022-09-03T13:49:39;0.80;;;0.70;;
32786;SDS011;19139;49.372;8.580;2022-09-03T13:52:59;0.93;;;0.73;;
32786;SDS011;19139;49.372;8.580;2022-09-03T13:55:53;0.70;;;0.70;;
32786;SDS011;19139;49.372;8.580;2022-09-03T14:03:37;0.90;;;0.70;;
32786;SDS011;19139;49.372;8.580;2022-09-03T14:06:23;1.23;;;0.70;;
32786;SDS011;19139;49.372;8.580;2022-09-03T14:09:14;0.70;;;0.70;;
32786;SDS011;19139;49.372;8.580;2022-09-03T14:12:16;1.43;;;0.73;;
32786;SDS011;19139;49.372;8.580;2022-09-03T14:20:47;0.90;;;0.63;;
32786;SDS011;19139;49.372;8.580;2022-09-03T14:26:05;0.77;;;0.70;;
32786;SDS011;19139;49.372;8.580;2022-09-03T14:28:47;1.10;;;0.97;;
32786;SDS011;19139;49.372;8.580;2022-09-03T14:36:49;1.00;;;0.77;;
32786;SDS011;19139;49.372;8.580;2022-09-03T14:39:32;1.30;;;1.00;;
32786;SDS011;19139;49.372;8.580;2022-09-03T14:56:49;1.10;;;1.10;;
32786;SDS011;19139;49.372;8.580;2022-09-03T15:05:27;1.03;;;0.93;;
32786;SDS011;19139;49.372;8.580;2022-09-03T15:10:59;0.80;;;0.80;;
32786;SDS011;19139;49.372;8.580;2022-09-03T15:13:34;1.10;;;1.00;;
32786;SDS011;19139;49.372;8.580;2022-09-03T15:29:42;0.93;;;0.87;;
32786;SDS011;19139;49.372;8.580;2022-09-03T15:32:28;1.77;;;0.97;;
32786;SDS011;19139;49.372;8.580;2022-09-03T15:35:09;0.97;;;0.87;;
32786;SDS011;19139;49.372;8.580;2022-09-03T15:38:34;1.40;;;0.70;;
32786;SDS011;19139;49.372;8.580;2022-09-03T15:41:16;1.37;;;1.13;;
32786;SDS011;19139;49.372;8.580;2022-09-03T15:44:14;1.20;;;0.90;;
32786;SDS011;19139;49.372;8.580;2022-09-03T15:57:47;1.10;;;1.00;;
32786;SDS011;19139;49.372;8.580;2022-09-03T16:00:23;1.20;;;1.10;;
32786;SDS011;19139;49.372;8.580;2022-09-03T16:03:08;1.10;;;1.00;;
32786;SDS011;19139;49.372;8.580;2022-09-03T16:06:01;1.83;;;0.90;;
32786;SDS011;19139;49.372;8.580;2022-09-03T16:08:39;1.20;;;1.10;;
32786;SDS011;19139;49.372;8.580;2022-09-03T16:11:38;2.13;;;1.23;;
32786;SDS011;19139;49.372;8.580;2022-09-03T16:14:14;1.47;;;1.10;;
32786;SDS011;19139;49.372;8.580;2022-09-03T16:17:10;1.43;;;1.33;;
32786;SDS011;19139;49.372;8.580;2022-09-03T16:20:00;1.30;;;1.20;;
32786;SDS011;19139;49.372;8.580;2022-09-03T16:22:42;1.17;;;1.07;;
32786;SDS011;19139;49.372;8.580;2022-09-03T16:25:26;1.00;;;0.90;;
32786;SDS011;19139;49.372;8.580;2022-09-03T16:27:59;1.57;;;1.13;;
32786;SDS011;19139;49.372;8.580;2022-09-03T16:31:07;2.50;;;1.63;;
32786;SDS011;19139;49.372;8.580;2022-09-03T16:37:35;2.57;;;1.30;;
32786;SDS011;19139;49.372;8.580;2022-09-03T16:39:39;1.87;;;1.00;;
32786;SDS011;19139;49.372;8.580;2022-09-03T16:42:13;1.07;;;0.97;;
32786;SDS011;19139;49.372;8.580;2022-09-03T16:45:05;1.73;;;1.20;;
32786;SDS011;19139;49.372;8.580;2022-09-03T16:58:55;1.87;;;1.37;;
32786;SDS011;19139;49.372;8.580;2022-09-03T17:07:20;1.20;;;1.00;;
32786;SDS011;19139;49.372;8.580;2022-09-03T17:10:10;1.63;;;1.00;;
32786;SDS011;19139;49.372;8.580;2022-09-03T17:15:55;1.30;;;1.17;;
32786;SDS011;19139;49.372;8.580;2022-09-03T17:27:08;1.40;;;1.30;;
32786;SDS011;19139;49.372;8.580;2022-09-03T17:30:00;1.00;;;0.90;;
32786;SDS011;19139;49.372;8.580;2022-09-03T17:35:31;1.13;;;1.03;;
32786;SDS011;19139;49.372;8.580;2022-09-03T17:38:18;1.13;;;1.00;;
32786;SDS011;19139;49.372;8.580;2022-09-03T17:49:58;1.20;;;1.10;;
32786;SDS011;19139;49.372;8.580;2022-09-03T17:52:54;1.20;;;0.93;;
32786;SDS011;19139;49.372;8.580;2022-09-03T17:55:34;1.20;;;1.10;;
32786;SDS011;19139;49.372;8.580;2022-09-03T18:03:33;1.50;;;1.23;;
32786;SDS011;19139;49.372;8.580;2022-09-03T18:16:53;1.20;;;1.10;;
32786;SDS011;19139;49.372;8.580;2022-09-03T18:23:07;1.50;;;1.20;;
32786;SDS011;19139;49.372;8.580;2022-09-03T18:26:14;1.20;;;1.10;;
32786;SDS011;19139;49.372;8.580;2022-09-03T18:29:06;1.97;;;1.27;;
32786;SDS011;19139;49.372;8.580;2022-09-03T18:31:57;1.77;;;1.43;;
32786;SDS011;19139;49.372;8.580;2022-09-03T18:34:48;1.07;;;0.80;;
32786;SDS011;19139;49.372;8.580;2022-09-03T18:37:38;0.83;;;0.80;;
32786;SDS011;19139;49.372;8.580;2022-09-03T18:40:37;1.50;;;1.10;;
32786;SDS011;19139;49.372;8.580;2022-09-03T18:43:46;1.30;;;1.07;;
32786;SDS011;19139;49.372;8.580;2022-09-03T18:46:56;1.47;;;1.37;;
32786;SDS011;19139;49.372;8.580;2022-09-03T18:56:20;1.53;;;0.90;;
32786;SDS011;19139;49.372;8.580;2022-09-03T19:02:46;0.97;;;0.93;;
32786;SDS011;19139;49.372;8.580;2022-09-03T19:15:26;0.97;;;0.90;;
32786;SDS011;19139;49.372;8.580;2022-09-03T19:21:47;1.10;;;0.97;;
32786;SDS011;19139;49.372;8.580;2022-09-03T19:24:37;1.70;;;1.50;;
32786;SDS011;19139;49.372;8.580;2022-09-03T19:27:45;1.27;;;1.00;;
32786;SDS011;19139;49.372;8.580;2022-09-03T19:30:57;1.10;;;0.90;;
32786;SDS011;19139;49.372;8.580;2022-09-03T19:37:34;0.90;;;0.90;;
32786;SDS011;19139;49.372;8.580;2022-09-03T19:43:23;1.03;;;0.90;;
32786;SDS011;19139;49.372;8.580;2022-09-03T19:55:57;1.50;;;1.00;;
32786;SDS011;19139;49.372;8.580;2022-09-03T19:58:48;1.37;;;1.27;;
32786;SDS011;19139;49.372;8.580;2022-09-03T20:01:38;1.30;;;1.20;;
32786;SDS011;19139;49.372;8.580;2022-09-03T20:04:29;1.43;;;1.33;;
32786;SDS011;19139;49.372;8.580;2022-09-03T20:07:21;1.20;;;1.00;;
32786;SDS011;19139;49.372;8.580;2022-09-03T20:10:08;1.03;;;0.83;;
32786;SDS011;19139;49.372;8.580;2022-09-03T20:13:02;0.80;;;0.80;;
32786;SDS011;19139;49.372;8.580;2022-09-03T20:21:34;1.57;;;1.03;;
32786;SDS011;19139;49.372;8.580;2022-09-03T20:27:23;1.20;;;1.10;;
32786;SDS011;19139;49.372;8.580;2022-09-03T20:30:12;1.13;;;1.03;;
32786;SDS011;19139;49.372;8.580;2022-09-03T20:32:50;1.27;;;1.17;;
32786;SDS011;19139;49.372;8.580;2022-09-03T20:35:51;0.93;;;0.93;;
32786;SDS011;19139;49.372;8.580;2022-09-03T20:52:12;1.17;;;1.07;;
32786;SDS011;19139;49.372;8.580;2022-09-03T21:00:45;1.20;;;1.10;;
32786;SDS011;19139;49.372;8.580;2022-09-03T21:06:33;1.23;;;1.13;;
32786;SDS011;19139;49.372;8.580;2022-09-03T21:09:25;1.37;;;1.27;;
32786;SDS011;19139;49.372;8.580;2022-09-03T21:12:08;1.50;;;1.40;;
32786;SDS011;19139;49.372;8.580;2022-09-03T21:15:00;1.73;;;1.53;;
32786;SDS011;19139;49.372;8.580;2022-09-03T21:17:44;1.03;;;0.97;;
32786;SDS011;19139;49.372;8.580;2022-09-03T21:20:46;1.30;;;1.20;;
32786;SDS011;19139;49.372;8.580;2022-09-03T21:23:32;1.20;;;1.10;;
32786;SDS011;19139;49.372;8.580;2022-09-03T21:26:10;1.30;;;1.20;;
32786;SDS011;19139;49.372;8.580;2022-09-03T21:28:47;1.40;;;1.30;;
32786;SDS011;19139;49.372;8.580;2022-09-03T21:31:42;2.10;;;1.20;;
32786;SDS011;19139;49.372;8.580;2022-09-03T21:37:49;0.80;;;0.80;;